sensor_id;sensor_type;location;lat;lon;timestamp;pressure;altitude;pressure_sealevel;temperature;humidity
69257;BME280;56376;53.356;-1.748;2023-04-30T00:02:07;99996.84;;;11.67;100.00
69257;BME280;56376;53.356;-1.748;2023-04-30T00:04:32;99997.81;;;11.65;100.00
69257;BME280;56376;53.356;-1.748;2023-04-30T00:06:58;99991.72;;;11.64;100.00
69257;BME280;56376;53.356;-1.748;2023-04-30T00:09:23;99998.81;;;11.61;100.00
69257;BME280;56376;53.356;-1.748;2023-04-30T00:11:49;99994.53;;;11.58;100.00
69257;BME280;56376;53.356;-1.748;2023-04-30T00:14:14;99986.78;;;11.55;100.00
69257;BME280;56376;53.356;-1.748;2023-04-30T00:16:40;99992.88;;;11.56;100.00
69257;BME280;56376;53.356;-1.748;2023-04-30T00:19:05;99992.97;;;11.53;100.00
69257;BME280;56376;53.356;-1.748;2023-04-30T00:21:31;99994.78;;;11.51;100.00
69257;BME280;56376;53.356;-1.748;2023-04-30T00:23:57;99990.41;;;11.51;100.00
69257;BME280;56376;53.356;-1.748;2023-04-30T00:26:24;99989.66;;;11.47;100.00
69257;BME280;56376;53.356;-1.748;2023-04-30T00:28:50;99988.94;;;11.42;100.00
69257;BME280;56376;53.356;-1.748;2023-04-30T00:31:15;99983.75;;;11.41;100.00
69257;BME280;56376;53.356;-1.748;2023-04-30T00:33:41;99989.94;;;11.38;100.00
69257;BME280;56376;53.356;-1.748;2023-04-30T00:36:06;99982.94;;;11.39;100.00
69257;BME280;56376;53.356;-1.748;2023-04-30T00:38:31;99985.56;;;11.39;100.00
69257;BME280;56376;53.356;-1.748;2023-04-30T00:40:57;99986.47;;;11.38;100.00
69257;BME280;56376;53.356;-1.748;2023-04-30T00:43:22;99986.50;;;11.36;100.00
69257;BME280;56376;53.356;-1.748;2023-04-30T00:45:48;99983.06;;;11.36;100.00
69257;BME280;56376;53.356;-1.748;2023-04-30T00:48:13;99990.97;;;11.34;100.00
69257;BME280;56376;53.356;-1.748;2023-04-30T00:50:40;99989.31;;;11.32;100.00
69257;BME280;56376;53.356;-1.748;2023-04-30T00:53:06;99987.56;;;11.31;100.00
69257;BME280;56376;53.356;-1.748;2023-04-30T00:55:31;99976.31;;;11.29;100.00
69257;BME280;56376;53.356;-1.748;2023-04-30T00:57:57;99971.19;;;11.25;100.00
69257;BME280;56376;53.356;-1.748;2023-04-30T01:00:24;99967.72;;;11.25;100.00
69257;BME280;56376;53.356;-1.748;2023-04-30T01:02:49;99976.41;;;11.25;100.00
69257;BME280;56376;53.356;-1.748;2023-04-30T01:05:15;99971.25;;;11.24;100.00
69257;BME280;56376;53.356;-1.748;2023-04-30T01:07:40;99961.78;;;11.20;100.00
69257;BME280;56376;53.356;-1.748;2023-04-30T01:10:10;99958.25;;;11.21;100.00
69257;BME280;56376;53.356;-1.748;2023-04-30T01:15:30;99967.03;;;11.18;100.00
69257;BME280;56376;53.356;-1.748;2023-04-30T01:18:06;99964.50;;;11.17;100.00
69257;BME280;56376;53.356;-1.748;2023-04-30T01:20:38;99964.59;;;11.14;100.00
69257;BME280;56376;53.356;-1.748;2023-04-30T01:28:45;99956.75;;;11.14;100.00
69257;BME280;56376;53.356;-1.748;2023-04-30T01:31:14;99962.03;;;11.12;100.00
69257;BME280;56376;53.356;-1.748;2023-04-30T01:33:42;99955.13;;;11.10;100.00
69257;BME280;56376;53.356;-1.748;2023-04-30T01:36:18;99955.16;;;11.08;100.00
69257;BME280;56376;53.356;-1.748;2023-04-30T01:41:36;99955.28;;;11.05;100.00
69257;BME280;56376;53.356;-1.748;2023-04-30T01:47:08;99953.59;;;11.02;100.00
69257;BME280;56376;53.356;-1.748;2023-04-30T01:49:57;99948.41;;;11.01;100.00
69257;BME280;56376;53.356;-1.748;2023-04-30T01:52:30;99944.09;;;11.00;100.00
69257;BME280;56376;53.356;-1.748;2023-04-30T01:55:00;99951.97;;;10.98;100.00
69257;BME280;56376;53.356;-1.748;2023-04-30T01:57:37;99937.25;;;10.96;100.00
69257;BME280;56376;53.356;-1.748;2023-04-30T02:00:05;99936.47;;;10.94;100.00
69257;BME280;56376;53.356;-1.748;2023-04-30T02:02:35;99932.13;;;10.93;100.00
69257;BME280;56376;53.356;-1.748;2023-04-30T02:05:00;99932.22;;;10.90;100.00
69257;BME280;56376;53.356;-1.748;2023-04-30T02:07:43;99932.25;;;10.88;100.00
69257;BME280;56376;53.356;-1.748;2023-04-30T02:10:09;99931.50;;;10.85;100.00
69257;BME280;56376;53.356;-1.748;2023-04-30T02:12:36;99929.81;;;10.83;100.00
69257;BME280;56376;53.356;-1.748;2023-04-30T02:15:03;99930.69;;;10.82;100.00
69257;BME280;56376;53.356;-1.748;2023-04-30T02:17:28;99923.78;;;10.81;100.00
69257;BME280;56376;53.356;-1.748;2023-04-30T02:19:54;99928.09;;;10.82;100.00
69257;BME280;56376;53.356;-1.748;2023-04-30T02:22:19;99932.50;;;10.80;100.00
69257;BME280;56376;53.356;-1.748;2023-04-30T02:24:45;99922.94;;;10.81;100.00
69257;BME280;56376;53.356;-1.748;2023-04-30T02:27:10;99918.63;;;10.78;100.00
69257;BME280;56376;53.356;-1.748;2023-04-30T02:29:35;99925.53;;;10.81;100.00
69257;BME280;56376;53.356;-1.748;2023-04-30T02:32:01;99921.19;;;10.80;100.00
69257;BME280;56376;53.356;-1.748;2023-04-30T02:34:26;99926.38;;;10.81;100.00
69257;BME280;56376;53.356;-1.748;2023-04-30T02:36:52;99923.72;;;10.83;100.00
69257;BME280;56376;53.356;-1.748;2023-04-30T02:39:17;99920.25;;;10.82;100.00
69257;BME280;56376;53.356;-1.748;2023-04-30T02:41:42;99916.78;;;10.82;100.00
69257;BME280;56376;53.356;-1.748;2023-04-30T02:44:08;99923.72;;;10.83;100.00
69257;BME280;56376;53.356;-1.748;2023-04-30T02:46:33;99911.56;;;10.82;100.00
69257;BME280;56376;53.356;-1.748;2023-04-30T02:48:58;99915.00;;;10.84;100.00
69257;BME280;56376;53.356;-1.748;2023-04-30T02:51:24;99922.88;;;10.82;100.00
69257;BME280;56376;53.356;-1.748;2023-04-30T02:53:49;99924.63;;;10.82;100.00
69257;BME280;56376;53.356;-1.748;2023-04-30T02:56:16;99934.22;;;10.81;100.00
69257;BME280;56376;53.356;-1.748;2023-04-30T02:58:41;99929.88;;;10.80;100.00
69257;BME280;56376;53.356;-1.748;2023-04-30T03:01:06;99925.47;;;10.82;100.00
69257;BME280;56376;53.356;-1.748;2023-04-30T03:03:32;99924.66;;;10.80;100.00
69257;BME280;56376;53.356;-1.748;2023-04-30T03:05:58;99928.19;;;10.79;100.00
69257;BME280;56376;53.356;-1.748;2023-04-30T03:08:24;99922.06;;;10.80;100.00
69257;BME280;56376;53.356;-1.748;2023-04-30T03:10:49;99923.91;;;10.77;100.00
69257;BME280;56376;53.356;-1.748;2023-04-30T03:13:15;99925.63;;;10.78;100.00
69257;BME280;56376;53.356;-1.748;2023-04-30T03:15:40;99924.81;;;10.76;100.00
69257;BME280;56376;53.356;-1.748;2023-04-30T03:18:05;99916.09;;;10.75;100.00
69257;BME280;56376;53.356;-1.748;2023-04-30T03:20:31;99920.50;;;10.75;100.00
69257;BME280;56376;53.356;-1.748;2023-04-30T03:22:56;99910.88;;;10.75;100.00
69257;BME280;56376;53.356;-1.748;2023-04-30T03:25:22;99911.81;;;10.74;100.00
69257;BME280;56376;53.356;-1.748;2023-04-30T03:27:47;99913.50;;;10.75;100.00
69257;BME280;56376;53.356;-1.748;2023-04-30T03:30:12;99911.81;;;10.74;100.00
69257;BME280;56376;53.356;-1.748;2023-04-30T03:32:38;99917.88;;;10.75;100.00
69257;BME280;56376;53.356;-1.748;2023-04-30T03:35:04;99914.41;;;10.74;100.00
69257;BME280;56376;53.356;-1.748;2023-04-30T03:37:29;99914.41;;;10.74;100.00
69257;BME280;56376;53.356;-1.748;2023-04-30T03:39:55;99920.44;;;10.76;100.00
69257;BME280;56376;53.356;-1.748;2023-04-30T03:42:20;99908.28;;;10.75;100.00
69257;BME280;56376;53.356;-1.748;2023-04-30T03:44:46;99906.56;;;10.74;100.00
69257;BME280;56376;53.356;-1.748;2023-04-30T03:47:11;99904.94;;;10.70;100.00
69257;BME280;56376;53.356;-1.748;2023-04-30T03:49:37;99911.03;;;10.71;100.00
69257;BME280;56376;53.356;-1.748;2023-04-30T03:52:02;99909.22;;;10.73;100.00
69257;BME280;56376;53.356;-1.748;2023-04-30T03:54:29;99915.28;;;10.73;100.00
69257;BME280;56376;53.356;-1.748;2023-04-30T03:56:55;99914.41;;;10.74;100.00
69257;BME280;56376;53.356;-1.748;2023-04-30T03:59:20;99922.19;;;10.76;100.00
69257;BME280;56376;53.356;-1.748;2023-04-30T04:01:46;99923.09;;;10.75;100.00
69257;BME280;56376;53.356;-1.748;2023-04-30T04:04:11;99913.50;;;10.75;100.00
69257;BME280;56376;53.356;-1.748;2023-04-30T04:06:37;99909.19;;;10.74;100.00
69257;BME280;56376;53.356;-1.748;2023-04-30T04:09:02;99919.63;;;10.74;100.00
69257;BME280;56376;53.356;-1.748;2023-04-30T04:11:28;99917.84;;;10.76;100.00
69257;BME280;56376;53.356;-1.748;2023-04-30T04:13:54;99909.09;;;10.77;100.00
69257;BME280;56376;53.356;-1.748;2023-04-30T04:16:19;99910.00;;;10.76;100.00
69257;BME280;56376;53.356;-1.748;2023-04-30T04:18:45;99907.38;;;10.76;100.00
69257;BME280;56376;53.356;-1.748;2023-04-30T04:21:11;99904.81;;;10.75;100.00
69257;BME280;56376;53.356;-1.748;2023-04-30T04:23:37;99909.19;;;10.74;100.00
69257;BME280;56376;53.356;-1.748;2023-04-30T04:26:02;99915.22;;;10.76;100.00
69257;BME280;56376;53.356;-1.748;2023-04-30T04:28:27;99912.69;;;10.73;100.00
69257;BME280;56376;53.356;-1.748;2023-04-30T04:30:53;99904.84;;;10.73;100.00
69257;BME280;56376;53.356;-1.748;2023-04-30T04:33:18;99914.41;;;10.74;100.00
69257;BME280;56376;53.356;-1.748;2023-04-30T04:35:43;99910.88;;;10.75;100.00
69257;BME280;56376;53.356;-1.748;2023-04-30T04:38:10;99920.50;;;10.75;100.00
69257;BME280;56376;53.356;-1.748;2023-04-30T04:40:35;99903.16;;;10.72;100.00
69257;BME280;56376;53.356;-1.748;2023-04-30T04:43:01;99913.50;;;10.75;100.00
69257;BME280;56376;53.356;-1.748;2023-04-30T04:45:27;99912.69;;;10.73;100.00
69257;BME280;56376;53.356;-1.748;2023-04-30T04:47:52;99915.22;;;10.76;100.00
69257;BME280;56376;53.356;-1.748;2023-04-30T04:50:17;99908.28;;;10.75;100.00
69257;BME280;56376;53.356;-1.748;2023-04-30T04:52:43;99900.44;;;10.75;100.00
69257;BME280;56376;53.356;-1.748;2023-04-30T04:55:08;99901.28;;;10.76;100.00
69257;BME280;56376;53.356;-1.748;2023-04-30T04:57:34;99903.91;;;10.76;100.00
69257;BME280;56376;53.356;-1.748;2023-04-30T04:59:59;99905.66;;;10.75;100.00
69257;BME280;56376;53.356;-1.748;2023-04-30T05:02:24;99907.38;;;10.76;100.00
69257;BME280;56376;53.356;-1.748;2023-04-30T05:04:50;99896.13;;;10.74;100.00
69257;BME280;56376;53.356;-1.748;2023-04-30T05:07:16;99896.94;;;10.76;100.00
69257;BME280;56376;53.356;-1.748;2023-04-30T05:09:43;99896.94;;;10.76;100.00
69257;BME280;56376;53.356;-1.748;2023-04-30T05:12:08;99896.94;;;10.76;100.00
69257;BME280;56376;53.356;-1.748;2023-04-30T05:14:34;99890.91;;;10.74;100.00
69257;BME280;56376;53.356;-1.748;2023-04-30T05:16:59;99889.13;;;10.75;100.00
69257;BME280;56376;53.356;-1.748;2023-04-30T05:19:25;99890.09;;;10.72;100.00
69257;BME280;56376;53.356;-1.748;2023-04-30T05:21:50;99890.81;;;10.76;100.00
69257;BME280;56376;53.356;-1.748;2023-04-30T05:24:16;99894.34;;;10.75;100.00
69257;BME280;56376;53.356;-1.748;2023-04-30T05:26:41;99897.81;;;10.75;100.00
69257;BME280;56376;53.356;-1.748;2023-04-30T05:29:07;99894.34;;;10.75;100.00
69257;BME280;56376;53.356;-1.748;2023-04-30T05:31:32;99889.09;;;10.76;100.00
69257;BME280;56376;53.356;-1.748;2023-04-30T05:33:57;99893.41;;;10.77;100.00
69257;BME280;56376;53.356;-1.748;2023-04-30T05:36:23;99897.69;;;10.80;100.00
69257;BME280;56376;53.356;-1.748;2023-04-30T05:38:48;99899.44;;;10.79;100.00
69257;BME280;56376;53.356;-1.748;2023-04-30T05:41:14;99901.22;;;10.79;100.00
69257;BME280;56376;53.356;-1.748;2023-04-30T05:43:39;99903.81;;;10.79;100.00
69257;BME280;56376;53.356;-1.748;2023-04-30T05:46:04;99895.97;;;10.79;100.00
69257;BME280;56376;53.356;-1.748;2023-04-30T05:48:30;99902.06;;;10.79;100.00
69257;BME280;56376;53.356;-1.748;2023-04-30T05:50:55;99895.09;;;10.78;100.00
69257;BME280;56376;53.356;-1.748;2023-04-30T05:53:21;99896.81;;;10.81;100.00
69257;BME280;56376;53.356;-1.748;2023-04-30T05:55:46;99899.44;;;10.79;100.00
69257;BME280;56376;53.356;-1.748;2023-04-30T05:58:12;99900.16;;;10.85;100.00
69257;BME280;56376;53.356;-1.748;2023-04-30T06:00:37;99890.50;;;10.87;100.00
69257;BME280;56376;53.356;-1.748;2023-04-30T06:03:03;99903.47;;;10.90;100.00
69257;BME280;56376;53.356;-1.748;2023-04-30T06:05:32;99903.34;;;10.94;100.00
69257;BME280;56376;53.356;-1.748;2023-04-30T06:07:57;99905.81;;;10.99;100.00
69257;BME280;56376;53.356;-1.748;2023-04-30T06:10:23;99906.56;;;11.02;100.00
69257;BME280;56376;53.356;-1.748;2023-04-30T06:12:48;99902.25;;;11.01;100.00
69257;BME280;56376;53.356;-1.748;2023-04-30T06:15:13;99903.09;;;11.02;100.00
69257;BME280;56376;53.356;-1.748;2023-04-30T06:17:39;99906.44;;;11.05;100.00
69257;BME280;56376;53.356;-1.748;2023-04-30T06:20:05;99904.75;;;11.04;100.00
69257;BME280;56376;53.356;-1.748;2023-04-30T06:22:32;99894.22;;;11.06;100.00
69257;BME280;56376;53.356;-1.748;2023-04-30T06:24:57;99902.94;;;11.07;100.00
69257;BME280;56376;53.356;-1.748;2023-04-30T06:27:24;99914.16;;;11.10;100.00
69257;BME280;56376;53.356;-1.748;2023-04-30T06:29:52;99908.78;;;11.15;100.00
69257;BME280;56376;53.356;-1.748;2023-04-30T06:32:18;99901.75;;;11.17;100.00
69257;BME280;56376;53.356;-1.748;2023-04-30T06:34:43;99900.72;;;11.21;100.00
69257;BME280;56376;53.356;-1.748;2023-04-30T06:37:08;99904.09;;;11.24;100.00
69257;BME280;56376;53.356;-1.748;2023-04-30T06:39:34;99899.63;;;11.28;100.00
69257;BME280;56376;53.356;-1.748;2023-04-30T06:42:00;99907.31;;;11.33;100.00
69257;BME280;56376;53.356;-1.748;2023-04-30T06:44:25;99890.56;;;11.38;100.00
69257;BME280;56376;53.356;-1.748;2023-04-30T06:46:50;99890.44;;;11.41;100.00
69257;BME280;56376;53.356;-1.748;2023-04-30T06:49:16;99905.03;;;11.48;100.00
69257;BME280;56376;53.356;-1.748;2023-04-30T06:51:41;99896.88;;;11.58;100.00
69257;BME280;56376;53.356;-1.748;2023-04-30T06:54:07;99906.00;;;11.71;100.00
69257;BME280;56376;53.356;-1.748;2023-04-30T06:56:32;99888.09;;;11.84;100.00
69257;BME280;56376;53.356;-1.748;2023-04-30T06:58:57;99886.03;;;11.94;100.00
69257;BME280;56376;53.356;-1.748;2023-04-30T07:01:23;99887.50;;;12.02;100.00
69257;BME280;56376;53.356;-1.748;2023-04-30T07:03:48;99884.75;;;12.05;100.00
69257;BME280;56376;53.356;-1.748;2023-04-30T07:06:15;99882.00;;;12.08;100.00
69257;BME280;56376;53.356;-1.748;2023-04-30T07:08:40;99879.19;;;12.15;100.00
69257;BME280;56376;53.356;-1.748;2023-04-30T07:11:08;99882.56;;;12.17;100.00
69257;BME280;56376;53.356;-1.748;2023-04-30T07:13:33;99891.22;;;12.19;100.00
69257;BME280;56376;53.356;-1.748;2023-04-30T07:15:59;99882.41;;;12.21;100.00
69257;BME280;56376;53.356;-1.748;2023-04-30T07:18:24;99887.81;;;12.17;100.00
69257;BME280;56376;53.356;-1.748;2023-04-30T07:20:50;99881.72;;;12.16;100.00
69257;BME280;56376;53.356;-1.748;2023-04-30T07:23:15;99891.34;;;12.16;100.00
69257;BME280;56376;53.356;-1.748;2023-04-30T07:25:41;99897.44;;;12.16;100.00
69257;BME280;56376;53.356;-1.748;2023-04-30T07:28:06;99882.69;;;12.13;100.00
69257;BME280;56376;53.356;-1.748;2023-04-30T07:30:32;99887.03;;;12.15;100.00
69257;BME280;56376;53.356;-1.748;2023-04-30T07:32:58;99891.41;;;12.14;100.00
69257;BME280;56376;53.356;-1.748;2023-04-30T07:35:23;99896.63;;;12.14;100.00
69257;BME280;56376;53.356;-1.748;2023-04-30T07:37:49;99898.28;;;12.17;100.00
69257;BME280;56376;53.356;-1.748;2023-04-30T07:40:14;99891.09;;;12.22;100.00
69257;BME280;56376;53.356;-1.748;2023-04-30T07:42:40;99888.41;;;12.25;100.00
69257;BME280;56376;53.356;-1.748;2023-04-30T07:45:14;99887.22;;;12.32;100.00
69257;BME280;56376;53.356;-1.748;2023-04-30T07:47:40;99883.59;;;12.36;100.00
69257;BME280;56376;53.356;-1.748;2023-04-30T07:50:06;99886.78;;;12.44;100.00
69257;BME280;56376;53.356;-1.748;2023-04-30T07:52:31;99879.53;;;12.51;100.00
69257;BME280;56376;53.356;-1.748;2023-04-30T07:54:57;99887.09;;;12.59;100.00
69257;BME280;56376;53.356;-1.748;2023-04-30T07:57:22;99884.22;;;12.65;100.00
69257;BME280;56376;53.356;-1.748;2023-04-30T07:59:47;99880.72;;;12.66;100.00
69257;BME280;56376;53.356;-1.748;2023-04-30T08:02:13;99875.34;;;12.69;100.00
69257;BME280;56376;53.356;-1.748;2023-04-30T08:04:38;99867.47;;;12.69;100.00
69257;BME280;56376;53.356;-1.748;2023-04-30T08:07:04;99883.03;;;12.73;100.00
69257;BME280;56376;53.356;-1.748;2023-04-30T08:09:29;99881.31;;;12.72;100.00
69257;BME280;56376;53.356;-1.748;2023-04-30T08:11:55;99882.94;;;12.75;100.00
69257;BME280;56376;53.356;-1.748;2023-04-30T08:14:20;99880.28;;;12.76;100.00
69257;BME280;56376;53.356;-1.748;2023-04-30T08:16:46;99884.38;;;12.84;100.00
69257;BME280;56376;53.356;-1.748;2023-04-30T08:19:11;99884.25;;;12.87;100.00
69257;BME280;56376;53.356;-1.748;2023-04-30T08:21:37;99872.78;;;12.89;100.00
69257;BME280;56376;53.356;-1.748;2023-04-30T08:24:03;99875.28;;;12.92;100.00
69257;BME280;56376;53.356;-1.748;2023-04-30T08:26:28;99879.53;;;12.95;100.00
69257;BME280;56376;53.356;-1.748;2023-04-30T08:28:54;99880.47;;;12.94;100.00
69257;BME280;56376;53.356;-1.748;2023-04-30T08:31:19;99883.03;;;12.95;100.00
69257;BME280;56376;53.356;-1.748;2023-04-30T08:33:44;99874.44;;;12.92;100.00
69257;BME280;56376;53.356;-1.748;2023-04-30T08:36:10;99882.41;;;12.89;100.00
69257;BME280;56376;53.356;-1.748;2023-04-30T08:38:35;99881.56;;;12.88;100.00
69257;BME280;56376;53.356;-1.748;2023-04-30T08:41:10;99890.34;;;12.87;100.00
69257;BME280;56376;53.356;-1.748;2023-04-30T08:43:35;99891.13;;;12.89;100.00
69257;BME280;56376;53.356;-1.748;2023-04-30T08:46:05;99890.28;;;12.89;100.00
69257;BME280;56376;53.356;-1.748;2023-04-30T08:48:30;99903.34;;;12.90;100.00
69257;BME280;56376;53.356;-1.748;2023-04-30T08:51:00;99895.41;;;12.92;100.00
69257;BME280;56376;53.356;-1.748;2023-04-30T08:53:26;99904.06;;;12.94;100.00
69257;BME280;56376;53.356;-1.748;2023-04-30T08:55:51;99894.41;;;12.94;100.00
69257;BME280;56376;53.356;-1.748;2023-04-30T08:58:17;99896.06;;;12.97;100.00
69257;BME280;56376;53.356;-1.748;2023-04-30T09:00:42;99893.25;;;13.02;100.00
69257;BME280;56376;53.356;-1.748;2023-04-30T09:03:08;99886.25;;;13.02;100.00
69257;BME280;56376;53.356;-1.748;2023-04-30T09:05:35;99889.53;;;13.07;100.00
69257;BME280;56376;53.356;-1.748;2023-04-30T09:08:01;99888.81;;;13.04;100.00
69257;BME280;56376;53.356;-1.748;2023-04-30T09:10:26;99896.50;;;13.08;100.00
69257;BME280;56376;53.356;-1.748;2023-04-30T09:15:28;99889.44;;;13.10;100.00
69257;BME280;56376;53.356;-1.748;2023-04-30T09:18:13;99890.38;;;13.08;100.00
69257;BME280;56376;53.356;-1.748;2023-04-30T09:21:00;99885.25;;;13.05;100.00
69257;BME280;56376;53.356;-1.748;2023-04-30T09:23:27;99888.88;;;13.02;100.00
69257;BME280;56376;53.356;-1.748;2023-04-30T09:25:53;99882.91;;;12.98;100.00
69257;BME280;56376;53.356;-1.748;2023-04-30T09:28:19;99894.28;;;12.97;100.00
69257;BME280;56376;53.356;-1.748;2023-04-30T09:30:49;99879.53;;;12.95;100.00
69257;BME280;56376;53.356;-1.748;2023-04-30T09:33:15;99886.56;;;12.94;100.00
69257;BME280;56376;53.356;-1.748;2023-04-30T09:35:40;99894.28;;;12.97;100.00
69257;BME280;56376;53.356;-1.748;2023-04-30T09:38:06;99900.34;;;12.99;100.00
69257;BME280;56376;53.356;-1.748;2023-04-30T09:40:39;99893.44;;;12.97;100.00
69257;BME280;56376;53.356;-1.748;2023-04-30T09:43:06;99896.19;;;12.94;100.00
69257;BME280;56376;53.356;-1.748;2023-04-30T09:45:42;99888.28;;;12.95;100.00
69257;BME280;56376;53.356;-1.748;2023-04-30T09:48:09;99883.03;;;12.95;100.00
69257;BME280;56376;53.356;-1.748;2023-04-30T09:50:39;99883.81;;;12.97;100.00
69257;BME280;56376;53.356;-1.748;2023-04-30T09:53:09;99881.97;;;12.99;100.00
69257;BME280;56376;53.356;-1.748;2023-04-30T09:55:41;99878.56;;;12.97;100.00
69257;BME280;56376;53.356;-1.748;2023-04-30T09:58:07;99876.69;;;13.01;100.00
69257;BME280;56376;53.356;-1.748;2023-04-30T10:00:34;99884.59;;;12.99;100.00
69257;BME280;56376;53.356;-1.748;2023-04-30T10:03:06;99880.03;;;13.05;100.00
69257;BME280;56376;53.356;-1.748;2023-04-30T10:05:37;99878.31;;;13.04;100.00
69257;BME280;56376;53.356;-1.748;2023-04-30T10:08:10;99892.06;;;13.10;100.00
69257;BME280;56376;53.356;-1.748;2023-04-30T10:10:37;99892.06;;;13.10;100.00
69257;BME280;56376;53.356;-1.748;2023-04-30T10:13:09;99890.19;;;13.12;100.00
69257;BME280;56376;53.356;-1.748;2023-04-30T10:15:38;99885.69;;;13.16;100.00
69257;BME280;56376;53.356;-1.748;2023-04-30T10:18:17;99885.56;;;13.19;100.00
69257;BME280;56376;53.356;-1.748;2023-04-30T10:20:45;99881.25;;;13.18;100.00
69257;BME280;56376;53.356;-1.748;2023-04-30T10:23:13;99886.50;;;13.18;100.00
69257;BME280;56376;53.356;-1.748;2023-04-30T10:25:39;99886.59;;;13.15;100.00
69257;BME280;56376;53.356;-1.748;2023-04-30T10:28:07;99883.13;;;13.14;100.00
69257;BME280;56376;53.356;-1.748;2023-04-30T10:30:34;99889.34;;;13.12;100.00
69257;BME280;56376;53.356;-1.748;2023-04-30T10:40:45;99896.59;;;13.05;99.11
69257;BME280;56376;53.356;-1.748;2023-04-30T10:43:11;99903.56;;;13.06;95.38
69257;BME280;56376;53.356;-1.748;2023-04-30T10:45:41;99893.25;;;13.02;94.53
69257;BME280;56376;53.356;-1.748;2023-04-30T10:48:08;99895.03;;;13.01;95.63
69257;BME280;56376;53.356;-1.748;2023-04-30T10:50:41;99886.38;;;12.99;95.84
69257;BME280;56376;53.356;-1.748;2023-04-30T10:53:12;99884.69;;;12.98;96.98
69257;BME280;56376;53.356;-1.748;2023-04-30T10:55:53;99886.44;;;12.97;97.81
69257;BME280;56376;53.356;-1.748;2023-04-30T10:58:28;99885.53;;;12.98;98.71
69257;BME280;56376;53.356;-1.748;2023-04-30T11:03:31;99874.91;;;13.02;98.98
69257;BME280;56376;53.356;-1.748;2023-04-30T11:05:59;99872.41;;;12.98;100.00
69257;BME280;56376;53.356;-1.748;2023-04-30T11:08:32;99861.13;;;12.96;100.00
69257;BME280;56376;53.356;-1.748;2023-04-30T11:10:59;99859.44;;;12.95;100.00
69257;BME280;56376;53.356;-1.748;2023-04-30T11:13:26;99853.31;;;12.95;100.00
69257;BME280;56376;53.356;-1.748;2023-04-30T11:15:52;99858.50;;;12.96;100.00
69257;BME280;56376;53.356;-1.748;2023-04-30T11:18:18;99860.09;;;13.01;100.00
69257;BME280;56376;53.356;-1.748;2023-04-30T11:20:50;99855.88;;;12.96;100.00
69257;BME280;56376;53.356;-1.748;2023-04-30T11:23:22;99867.22;;;12.97;100.00
69257;BME280;56376;53.356;-1.748;2023-04-30T11:25:48;99845.44;;;12.95;100.00
69257;BME280;56376;53.356;-1.748;2023-04-30T11:28:18;99846.44;;;12.92;100.00
69257;BME280;56376;53.356;-1.748;2023-04-30T11:30:51;99862.16;;;12.92;100.00
69257;BME280;56376;53.356;-1.748;2023-04-30T11:33:17;99850.03;;;12.90;100.00
69257;BME280;56376;53.356;-1.748;2023-04-30T11:35:43;99849.13;;;12.91;100.00
69257;BME280;56376;53.356;-1.748;2023-04-30T11:38:11;99841.13;;;12.94;100.00
69257;BME280;56376;53.356;-1.748;2023-04-30T11:40:37;99830.50;;;12.97;100.00
69257;BME280;56376;53.356;-1.748;2023-04-30T11:43:02;99837.34;;;13.01;100.00
69257;BME280;56376;53.356;-1.748;2023-04-30T11:45:28;99834.59;;;13.04;100.00
69257;BME280;56376;53.356;-1.748;2023-04-30T11:47:55;99836.28;;;13.05;100.00
69257;BME280;56376;53.356;-1.748;2023-04-30T11:50:24;99841.44;;;13.08;100.00
69257;BME280;56376;53.356;-1.748;2023-04-30T11:52:57;99832.59;;;13.11;99.71
69257;BME280;56376;53.356;-1.748;2023-04-30T11:55:24;99830.75;;;13.13;99.19
69257;BME280;56376;53.356;-1.748;2023-04-30T11:57:52;99832.41;;;13.15;99.99
69257;BME280;56376;53.356;-1.748;2023-04-30T12:00:21;99835.59;;;13.22;100.00
69257;BME280;56376;53.356;-1.748;2023-04-30T12:02:48;99830.91;;;13.30;100.00
69257;BME280;56376;53.356;-1.748;2023-04-30T12:05:15;99818.56;;;13.32;98.62
69257;BME280;56376;53.356;-1.748;2023-04-30T12:07:46;99826.84;;;13.44;98.97
69257;BME280;56376;53.356;-1.748;2023-04-30T12:10:11;99826.38;;;13.54;99.68
69257;BME280;56376;53.356;-1.748;2023-04-30T12:12:37;99822.47;;;13.63;99.36
69257;BME280;56376;53.356;-1.748;2023-04-30T12:17:37;99809.00;;;13.71;98.08
69257;BME280;56376;53.356;-1.748;2023-04-30T12:20:03;99811.53;;;13.74;98.68
69257;BME280;56376;53.356;-1.748;2023-04-30T12:22:29;99805.28;;;13.76;98.50
69257;BME280;56376;53.356;-1.748;2023-04-30T12:24:55;99805.19;;;13.78;97.76
69257;BME280;56376;53.356;-1.748;2023-04-30T12:27:21;99806.72;;;13.83;98.01
69257;BME280;56376;53.356;-1.748;2023-04-30T12:29:47;99803.94;;;13.87;98.56
69257;BME280;56376;53.356;-1.748;2023-04-30T12:32:14;99802.09;;;13.89;97.30
69257;BME280;56376;53.356;-1.748;2023-04-30T12:34:43;99792.44;;;13.89;96.48
69257;BME280;56376;53.356;-1.748;2023-04-30T12:37:09;99805.44;;;13.92;97.58
69257;BME280;56376;53.356;-1.748;2023-04-30T12:39:34;99797.63;;;13.91;96.20
69257;BME280;56376;53.356;-1.748;2023-04-30T12:42:02;99794.88;;;13.94;97.19
69257;BME280;56376;53.356;-1.748;2023-04-30T12:44:28;99792.16;;;13.95;97.73
69257;BME280;56376;53.356;-1.748;2023-04-30T12:46:55;99797.34;;;13.97;98.70
69257;BME280;56376;53.356;-1.748;2023-04-30T12:49:26;99790.31;;;13.97;98.81
69257;BME280;56376;53.356;-1.748;2023-04-30T12:52:08;99793.63;;;14.01;99.06
69257;BME280;56376;53.356;-1.748;2023-04-30T12:54:35;99787.53;;;14.00;98.16
69257;BME280;56376;53.356;-1.748;2023-04-30T12:57:02;99787.63;;;13.99;98.18
69257;BME280;56376;53.356;-1.748;2023-04-30T12:59:33;99774.63;;;13.96;98.64
69257;BME280;56376;53.356;-1.748;2023-04-30T13:02:12;99784.38;;;13.94;98.96
69257;BME280;56376;53.356;-1.748;2023-04-30T13:04:40;99781.75;;;13.94;98.94
69257;BME280;56376;53.356;-1.748;2023-04-30T13:07:05;99787.84;;;13.94;97.48
69257;BME280;56376;53.356;-1.748;2023-04-30T13:09:35;99787.84;;;13.94;98.17